createdAt,value
2017-03-13T00:00:30.820Z,0
2017-03-13T00:01:42.297Z,0
2017-03-13T00:02:54.151Z,0
2017-03-13T00:04:05.982Z,0
2017-03-13T00:05:17.436Z,0
2017-03-13T00:06:28.902Z,0
2017-03-13T00:07:40.355Z,0
2017-03-13T00:08:52.026Z,0
2017-03-13T00:10:03.489Z,0
2017-03-13T00:11:14.941Z,0
2017-03-13T00:12:26.396Z,0
2017-03-13T00:13:37.838Z,0
2017-03-13T00:14:49.295Z,0
2017-03-13T00:16:00.739Z,0
2017-03-13T00:17:12.171Z,0
2017-03-13T00:18:23.823Z,0
2017-03-13T00:19:35.298Z,0
2017-03-13T00:20:46.752Z,0
2017-03-13T00:21:58.409Z,0
2017-03-13T00:23:09.846Z,0
2017-03-13T00:24:21.606Z,0
2017-03-13T00:25:33.051Z,0
2017-03-13T00:26:44.703Z,0
2017-03-13T00:27:56.378Z,0
2017-03-13T00:29:07.822Z,0
2017-03-13T00:30:19.265Z,0
2017-03-13T00:31:30.730Z,0
2017-03-13T00:32:42.176Z,0
2017-03-13T00:33:53.629Z,0
2017-03-13T00:35:05.082Z,0
2017-03-13T00:36:16.750Z,0
2017-03-13T00:37:28.627Z,0
2017-03-13T00:38:40.075Z,0
2017-03-13T00:39:51.509Z,0
2017-03-13T00:41:03.168Z,0
2017-03-13T00:42:14.624Z,0
2017-03-13T00:43:26.077Z,0
2017-03-13T00:44:37.528Z,0
2017-03-13T00:45:48.997Z,0
2017-03-13T00:47:00.447Z,0
2017-03-13T00:48:11.908Z,0
2017-03-13T00:49:23.369Z,0
2017-03-13T00:50:34.809Z,0
2017-03-13T00:51:46.254Z,0
2017-03-13T00:52:57.695Z,0
2017-03-13T00:54:09.340Z,0
2017-03-13T00:55:20.825Z,0
2017-03-13T00:56:32.286Z,0
2017-03-13T00:57:43.757Z,0
2017-03-13T00:58:55.198Z,0
2017-03-13T01:00:06.640Z,0
2017-03-13T01:01:18.105Z,0
2017-03-13T01:02:29.549Z,0
2017-03-13T01:03:40.991Z,0
2017-03-13T01:04:52.458Z,0
2017-03-13T01:06:03.958Z,0
2017-03-13T01:07:15.415Z,0
2017-03-13T01:08:27.080Z,0
2017-03-13T01:09:38.576Z,0
2017-03-13T01:10:50.257Z,0
2017-03-13T01:12:01.705Z,0
2017-03-13T01:13:13.376Z,0
2017-03-13T01:14:25.021Z,0
2017-03-13T01:15:36.469Z,0
2017-03-13T01:16:48.164Z,0
2017-03-13T01:17:59.609Z,0
2017-03-13T01:19:11.076Z,0
2017-03-13T01:20:22.922Z,0
2017-03-13T01:21:34.372Z,0
2017-03-13T01:22:45.844Z,0
2017-03-13T01:23:57.514Z,0
2017-03-13T01:25:08.990Z,0
2017-03-13T01:26:20.421Z,0
2017-03-13T01:27:31.865Z,0
2017-03-13T01:28:43.383Z,0
2017-03-13T01:29:54.824Z,0
2017-03-13T01:31:06.264Z,0
2017-03-13T01:32:17.725Z,0
2017-03-13T01:33:29.173Z,0
2017-03-13T01:34:40.623Z,0
2017-03-13T01:35:52.093Z,0
2017-03-13T01:37:03.555Z,0
2017-03-13T01:38:15.009Z,0
2017-03-13T01:39:26.446Z,0
2017-03-13T01:40:37.909Z,0
2017-03-13T01:41:49.351Z,0
2017-03-13T01:43:01.023Z,0
2017-03-13T01:44:12.499Z,0
2017-03-13T01:45:23.972Z,0
2017-03-13T01:46:35.413Z,0
2017-03-13T01:47:46.917Z,0
2017-03-13T01:48:58.376Z,0
2017-03-13T01:50:10.018Z,0
2017-03-13T01:51:21.865Z,0
2017-03-13T01:52:33.365Z,0
2017-03-13T01:53:44.795Z,0
2017-03-13T01:54:56.232Z,0
2017-03-13T01:56:07.680Z,0
2017-03-13T01:57:19.146Z,0
2017-03-13T01:58:30.589Z,0
2017-03-13T01:59:42.032Z,0
2017-03-13T02:00:53.472Z,0
2017-03-13T02:02:05.342Z,0
2017-03-13T02:03:16.832Z,0
2017-03-13T02:04:28.277Z,0
2017-03-13T02:05:39.921Z,0
2017-03-13T02:06:51.568Z,0
2017-03-13T02:08:03.018Z,0
2017-03-13T02:09:14.682Z,0
2017-03-13T02:10:26.350Z,0
2017-03-13T02:11:37.790Z,0
2017-03-13T02:12:49.246Z,0
2017-03-13T02:14:00.708Z,0
2017-03-13T02:15:12.161Z,0
2017-03-13T02:16:23.617Z,0
2017-03-13T02:17:35.287Z,0
2017-03-13T02:18:46.774Z,0
2017-03-13T02:19:58.623Z,0
2017-03-13T02:21:10.075Z,0
2017-03-13T02:22:21.531Z,0
2017-03-13T02:23:32.989Z,0
2017-03-13T02:24:44.636Z,0
2017-03-13T02:25:56.287Z,0
2017-03-13T02:27:07.946Z,0
2017-03-13T02:28:19.597Z,0
2017-03-13T02:29:31.061Z,0
2017-03-13T02:30:42.493Z,0
2017-03-13T02:31:53.963Z,0
2017-03-13T02:33:05.410Z,0
2017-03-13T02:34:16.897Z,0
2017-03-13T02:35:28.573Z,0
2017-03-13T02:36:40.020Z,0
2017-03-13T02:37:51.492Z,0
2017-03-13T02:39:03.149Z,0
2017-03-13T02:40:14.802Z,0
2017-03-13T02:41:26.235Z,0
2017-03-13T02:42:37.686Z,0
2017-03-13T02:43:49.327Z,0
2017-03-13T02:45:00.838Z,0
2017-03-13T02:46:12.286Z,0
2017-03-13T02:47:23.732Z,0
2017-03-13T02:48:35.207Z,0
2017-03-13T02:49:46.651Z,0
2017-03-13T02:50:58.093Z,0
2017-03-13T02:52:09.747Z,0
2017-03-13T02:53:21.190Z,0
2017-03-13T02:54:32.655Z,0
2017-03-13T02:55:44.177Z,0
2017-03-13T02:56:55.640Z,0
2017-03-13T02:58:07.078Z,0
2017-03-13T02:59:18.534Z,0
2017-03-13T03:00:30.182Z,0
2017-03-13T03:01:41.625Z,0
2017-03-13T03:02:53.079Z,0
2017-03-13T03:04:04.734Z,0
2017-03-13T03:05:16.197Z,0
2017-03-13T03:06:27.635Z,0
2017-03-13T03:07:39.097Z,0
2017-03-13T03:08:50.568Z,0
2017-03-13T03:10:02.032Z,0
2017-03-13T03:11:13.680Z,0
2017-03-13T03:12:25.130Z,0
2017-03-13T03:13:36.577Z,0
2017-03-13T03:14:48.031Z,0
2017-03-13T03:15:59.506Z,0
2017-03-13T03:17:10.962Z,0
2017-03-13T03:18:22.400Z,0
2017-03-13T03:19:33.844Z,0
2017-03-13T03:20:45.275Z,0
2017-03-13T03:21:56.714Z,0
2017-03-13T03:23:08.156Z,0
2017-03-13T03:24:19.606Z,0
2017-03-13T03:25:31.041Z,0
2017-03-13T03:26:42.522Z,0
2017-03-13T03:27:53.960Z,0
2017-03-13T03:29:05.392Z,0
2017-03-13T03:30:16.843Z,0
2017-03-13T03:31:28.491Z,0
2017-03-13T03:32:39.935Z,0
2017-03-13T03:33:51.397Z,0
2017-03-13T03:35:02.836Z,0
2017-03-13T03:36:14.296Z,0
2017-03-13T03:37:25.926Z,0
2017-03-13T03:38:37.779Z,0
2017-03-13T03:39:49.237Z,0
2017-03-13T03:41:00.675Z,0
2017-03-13T03:42:12.143Z,0
2017-03-13T03:43:23.776Z,0
2017-03-13T03:44:35.268Z,0
2017-03-13T03:45:46.704Z,0
2017-03-13T03:46:58.181Z,0
2017-03-13T03:48:09.604Z,0
2017-03-13T03:49:21.052Z,0
2017-03-13T03:50:32.506Z,0
2017-03-13T03:51:43.948Z,0
2017-03-13T03:52:55.597Z,0
2017-03-13T03:54:07.067Z,0
2017-03-13T03:55:18.524Z,0
2017-03-13T03:56:30.176Z,0
2017-03-13T03:57:41.825Z,0
2017-03-13T03:58:53.296Z,0
2017-03-13T04:00:04.755Z,0
2017-03-13T04:01:16.227Z,0
2017-03-13T04:02:27.734Z,0
2017-03-13T04:03:39.205Z,0
2017-03-13T04:04:50.669Z,0
2017-03-13T04:06:02.106Z,0
2017-03-13T04:07:13.561Z,0
2017-03-13T04:08:25.032Z,0
2017-03-13T04:09:36.665Z,0
2017-03-13T04:10:48.313Z,0
2017-03-13T04:11:59.751Z,0
2017-03-13T04:13:11.228Z,0
2017-03-13T04:14:23.086Z,0
2017-03-13T04:15:34.929Z,0
2017-03-13T04:16:46.410Z,0
2017-03-13T04:17:57.845Z,0
2017-03-13T04:19:09.489Z,0
2017-03-13T04:20:20.951Z,0
2017-03-13T04:21:32.407Z,0
2017-03-13T04:22:44.062Z,0
2017-03-13T04:23:55.561Z,0
2017-03-13T04:25:07.010Z,0
2017-03-13T04:26:18.670Z,0
2017-03-13T04:27:30.111Z,0
2017-03-13T04:28:41.544Z,0
2017-03-13T04:29:52.990Z,0
2017-03-13T04:31:04.469Z,0
2017-03-13T04:32:15.932Z,0
2017-03-13T04:33:27.373Z,0
2017-03-13T04:34:38.816Z,0
2017-03-13T04:35:50.275Z,0
2017-03-13T04:37:01.722Z,0
2017-03-13T04:38:13.151Z,0
2017-03-13T04:39:24.668Z,0
2017-03-13T04:40:36.132Z,0
2017-03-13T04:41:47.578Z,0
2017-03-13T04:42:59.043Z,0
2017-03-13T04:44:10.488Z,0
2017-03-13T04:45:21.927Z,0
2017-03-13T04:46:33.569Z,0
2017-03-13T04:47:45.008Z,0
2017-03-13T04:48:56.670Z,0
2017-03-13T04:50:08.120Z,0
2017-03-13T04:51:19.553Z,0
2017-03-13T04:52:30.996Z,0
2017-03-13T04:53:42.660Z,0
2017-03-13T04:54:54.173Z,0
2017-03-13T04:56:05.615Z,0
2017-03-13T04:57:17.055Z,0
2017-03-13T04:58:28.510Z,0
2017-03-13T04:59:40.157Z,0
2017-03-13T05:00:51.610Z,0
2017-03-13T05:02:03.052Z,0
2017-03-13T05:03:14.510Z,0
2017-03-13T05:04:25.965Z,0
2017-03-13T05:05:37.665Z,0
2017-03-13T05:06:49.306Z,0
2017-03-13T05:08:00.766Z,0
2017-03-13T05:09:12.209Z,0
2017-03-13T05:10:23.845Z,0
2017-03-13T05:11:35.291Z,0
2017-03-13T05:12:46.739Z,0
2017-03-13T05:13:58.179Z,0
2017-03-13T05:15:09.637Z,0
2017-03-13T05:16:21.097Z,0
2017-03-13T05:17:32.536Z,0
2017-03-13T05:18:43.995Z,0
2017-03-13T05:19:55.451Z,0
2017-03-13T05:21:07.163Z,0
2017-03-13T05:22:18.621Z,0
2017-03-13T05:23:30.282Z,0
2017-03-13T05:24:41.735Z,0
2017-03-13T05:25:53.382Z,0
2017-03-13T05:27:04.831Z,0
2017-03-13T05:28:16.289Z,0
2017-03-13T05:29:27.737Z,0
2017-03-13T05:30:39.390Z,0
2017-03-13T05:31:51.310Z,0
2017-03-13T05:33:02.780Z,0
2017-03-13T05:34:14.423Z,0
2017-03-13T05:35:25.872Z,0
2017-03-13T05:36:37.528Z,0
2017-03-13T05:37:48.961Z,0
2017-03-13T05:39:00.618Z,5
2017-03-13T05:40:12.253Z,5
2017-03-13T05:41:23.699Z,5
2017-03-13T05:42:35.195Z,5
2017-03-13T05:43:46.649Z,10
2017-03-13T05:44:58.102Z,10
2017-03-13T05:46:09.568Z,10
2017-03-13T05:47:21.017Z,15
2017-03-13T05:48:32.681Z,15
2017-03-13T05:49:44.330Z,15
2017-03-13T05:50:56.007Z,20
2017-03-13T05:52:07.470Z,20
2017-03-13T05:53:18.966Z,20
2017-03-13T05:54:30.415Z,25
2017-03-13T05:55:41.895Z,25
2017-03-13T05:56:53.543Z,30
2017-03-13T05:58:05.000Z,30
2017-03-13T05:59:16.468Z,35
2017-03-13T06:00:28.114Z,40
2017-03-13T06:01:39.561Z,40
2017-03-13T06:02:51.413Z,40
2017-03-13T06:04:02.930Z,45
2017-03-13T06:05:14.408Z,50
2017-03-13T06:06:25.862Z,50
2017-03-13T06:07:37.332Z,55
2017-03-13T06:08:48.779Z,60
2017-03-13T06:10:00.230Z,65
2017-03-13T06:11:11.675Z,75
2017-03-13T06:12:23.122Z,80
2017-03-13T06:13:34.576Z,80
2017-03-13T06:14:46.314Z,85
2017-03-13T06:15:57.961Z,95
2017-03-13T06:17:09.422Z,105
2017-03-13T06:18:20.897Z,120
2017-03-13T06:19:32.337Z,155
2017-03-13T06:20:43.992Z,190
2017-03-13T06:21:55.445Z,195
2017-03-13T06:23:06.918Z,195
2017-03-13T06:24:18.361Z,175
2017-03-13T06:25:30.106Z,155
2017-03-13T06:26:41.547Z,185
2017-03-13T06:27:53.203Z,200
2017-03-13T06:29:04.664Z,185
2017-03-13T06:30:16.146Z,215
2017-03-13T06:31:27.815Z,240
2017-03-13T06:32:39.272Z,230
2017-03-13T06:33:50.716Z,225
2017-03-13T06:35:02.158Z,215
2017-03-13T06:36:13.585Z,225
2017-03-13T06:37:25.044Z,220
2017-03-13T06:38:36.502Z,225
2017-03-13T06:39:48.142Z,255
2017-03-13T06:40:59.602Z,255
2017-03-13T06:42:11.119Z,280
2017-03-13T06:43:22.565Z,275
2017-03-13T06:44:34.226Z,280
2017-03-13T06:45:45.872Z,300
2017-03-13T06:46:57.509Z,315
2017-03-13T06:48:09.179Z,330
2017-03-13T06:49:20.630Z,325
2017-03-13T06:50:32.076Z,330
2017-03-13T06:51:43.515Z,340
2017-03-13T06:52:55.029Z,355
2017-03-13T06:54:06.680Z,370
2017-03-13T06:55:18.113Z,385
2017-03-13T06:56:29.570Z,425
2017-03-13T06:57:41.242Z,445
2017-03-13T06:58:52.699Z,560
2017-03-13T07:00:04.144Z,660
2017-03-13T07:01:16.001Z,560
2017-03-13T07:02:27.475Z,615
2017-03-13T07:03:39.378Z,695
2017-03-13T07:04:50.830Z,715
2017-03-13T07:06:02.287Z,715
2017-03-13T07:07:13.750Z,670
2017-03-13T07:08:25.807Z,710
2017-03-13T07:09:37.261Z,865
2017-03-13T07:10:48.706Z,925
2017-03-13T07:12:00.356Z,770
2017-03-13T07:13:11.832Z,860
2017-03-13T07:14:23.583Z,730
2017-03-13T07:15:35.044Z,755
2017-03-13T07:16:46.681Z,695
2017-03-13T07:17:58.134Z,660
2017-03-13T07:19:09.569Z,700
2017-03-13T07:20:21.242Z,795
2017-03-13T07:21:32.689Z,740
2017-03-13T07:22:44.331Z,750
2017-03-13T07:23:55.787Z,750
2017-03-13T07:25:07.286Z,825
2017-03-13T07:26:18.740Z,910
2017-03-13T07:27:30.201Z,885
2017-03-13T07:28:41.657Z,890
2017-03-13T07:29:53.112Z,840
2017-03-13T07:31:04.749Z,835
2017-03-13T07:32:16.198Z,645
2017-03-13T07:33:27.657Z,640
2017-03-13T07:34:39.128Z,735
2017-03-13T07:35:50.848Z,835
2017-03-13T07:37:02.312Z,850
2017-03-13T07:38:13.771Z,935
2017-03-13T07:39:25.415Z,860
2017-03-13T07:40:36.875Z,715
2017-03-13T07:41:48.348Z,715
2017-03-13T07:42:59.808Z,695
2017-03-13T07:44:11.265Z,690
2017-03-13T07:45:22.737Z,800
2017-03-13T07:46:34.231Z,900
2017-03-13T07:47:45.703Z,945
2017-03-13T07:48:57.351Z,850
2017-03-13T07:50:08.809Z,870
2017-03-13T07:51:20.469Z,905
2017-03-13T07:52:31.928Z,935
2017-03-13T07:53:43.372Z,940
2017-03-13T07:54:54.846Z,870
2017-03-13T07:56:06.329Z,885
2017-03-13T07:57:17.812Z,880
2017-03-13T07:58:29.473Z,860
2017-03-13T07:59:40.923Z,860
2017-03-13T08:00:52.400Z,800
2017-03-13T08:02:03.861Z,800
2017-03-13T08:03:15.352Z,770
2017-03-13T08:04:26.805Z,860
2017-03-13T08:05:38.466Z,1040
2017-03-13T08:06:49.944Z,1110
2017-03-13T08:08:01.599Z,1090
2017-03-13T08:09:13.088Z,875
2017-03-13T08:10:24.530Z,810
2017-03-13T08:11:35.998Z,765
2017-03-13T08:12:47.458Z,745
2017-03-13T08:13:58.921Z,675
2017-03-13T08:15:10.418Z,640
2017-03-13T08:16:21.903Z,590
2017-03-13T08:17:33.569Z,575
2017-03-13T08:18:45.061Z,560
2017-03-13T08:19:56.523Z,535
2017-03-13T08:21:08.228Z,515
2017-03-13T08:22:19.714Z,495
2017-03-13T08:23:31.182Z,490
2017-03-13T08:24:43.072Z,500
2017-03-13T08:25:54.537Z,495
2017-03-13T08:27:06.302Z,505
2017-03-13T08:28:17.766Z,515
2017-03-13T08:29:29.203Z,515
2017-03-13T08:30:40.664Z,505
2017-03-13T08:31:52.146Z,500
2017-03-13T08:33:03.898Z,505
2017-03-13T08:34:15.354Z,505
2017-03-13T08:35:26.834Z,505
2017-03-13T08:36:38.308Z,525
2017-03-13T08:37:49.782Z,555
2017-03-13T08:39:01.293Z,580
2017-03-13T08:40:12.924Z,630
2017-03-13T08:41:24.391Z,740
2017-03-13T08:42:35.844Z,730
2017-03-13T08:43:47.300Z,650
2017-03-13T08:44:59.096Z,670
2017-03-13T08:46:10.557Z,705
2017-03-13T08:47:22.005Z,745
2017-03-13T08:48:33.457Z,675
2017-03-13T08:49:44.945Z,755
2017-03-13T08:50:56.655Z,820
2017-03-13T08:52:08.328Z,860
2017-03-13T08:53:19.800Z,1340
2017-03-13T08:54:31.486Z,1995
2017-03-13T08:55:42.959Z,2195
2017-03-13T08:56:54.882Z,2055
2017-03-13T08:58:06.345Z,2325
2017-03-13T08:59:17.807Z,2380
2017-03-13T09:00:29.477Z,2485
2017-03-13T09:01:41.127Z,2565
2017-03-13T09:02:52.838Z,2605
2017-03-13T09:04:04.313Z,2585
2017-03-13T09:05:15.775Z,2415
2017-03-13T09:06:27.249Z,2685
2017-03-13T09:07:38.732Z,2660
2017-03-13T09:08:50.275Z,2495
2017-03-13T09:10:01.737Z,2680
2017-03-13T09:11:13.242Z,2705
2017-03-13T09:12:24.703Z,2735
2017-03-13T09:13:36.189Z,2865
2017-03-13T09:14:47.963Z,2780
2017-03-13T09:15:59.444Z,2665
2017-03-13T09:17:11.115Z,2785
2017-03-13T09:18:22.565Z,2790
2017-03-13T09:19:34.260Z,2770
2017-03-13T09:20:45.787Z,2890
2017-03-13T09:21:57.304Z,2815
2017-03-13T09:23:08.979Z,2645
2017-03-13T09:24:20.482Z,2575
2017-03-13T09:25:31.984Z,2675
2017-03-13T09:26:43.511Z,2725
2017-03-13T09:27:55.187Z,2880
2017-03-13T09:29:06.888Z,2875
2017-03-13T09:30:18.401Z,2885
2017-03-13T09:31:30.076Z,2910
2017-03-13T09:32:41.795Z,2925
2017-03-13T09:33:53.476Z,2800
2017-03-13T09:35:04.937Z,2755
2017-03-13T09:36:16.618Z,2600
2017-03-13T09:37:28.085Z,2635
2017-03-13T09:38:39.628Z,2675
2017-03-13T09:39:51.103Z,2625
2017-03-13T09:41:02.589Z,2585
2017-03-13T09:42:14.050Z,2640
2017-03-13T09:43:25.559Z,2590
2017-03-13T09:44:37.339Z,2575
2017-03-13T09:45:48.820Z,2670
2017-03-13T09:47:00.679Z,2640
2017-03-13T09:48:12.138Z,2550
2017-03-13T09:49:23.644Z,2675
2017-03-13T09:50:35.190Z,2665
2017-03-13T09:51:46.675Z,2630
2017-03-13T09:52:58.164Z,2340
2017-03-13T09:54:09.678Z,2330
2017-03-13T09:55:21.353Z,2355
2017-03-13T09:56:33.106Z,2435
2017-03-13T09:57:44.568Z,2310
2017-03-13T09:58:56.258Z,2105
2017-03-13T10:00:07.908Z,1960
2017-03-13T10:01:19.372Z,1580
2017-03-13T10:02:30.899Z,1445
2017-03-13T10:03:42.381Z,1520
2017-03-13T10:04:54.083Z,1580
2017-03-13T10:06:05.540Z,1595
2017-03-13T10:07:17.021Z,1670
2017-03-13T10:08:28.758Z,1985
2017-03-13T10:09:40.237Z,1980
2017-03-13T10:10:51.723Z,2055
2017-03-13T10:12:03.187Z,1885
2017-03-13T10:13:14.668Z,1795
2017-03-13T10:14:26.207Z,1705
2017-03-13T10:15:37.688Z,1785
2017-03-13T10:16:49.188Z,1880
2017-03-13T10:18:00.662Z,2085
2017-03-13T10:19:12.149Z,2215
2017-03-13T10:20:23.691Z,2270
2017-03-13T10:21:35.155Z,2250
2017-03-13T10:22:46.643Z,2205
2017-03-13T10:23:58.126Z,2230
2017-03-13T10:25:09.617Z,2400
2017-03-13T10:26:21.544Z,2265
2017-03-13T10:27:33.024Z,2420
2017-03-13T10:28:44.690Z,2540
2017-03-13T10:29:56.168Z,1720
2017-03-13T10:31:07.848Z,1805
2017-03-13T10:32:19.367Z,2015
2017-03-13T10:33:30.863Z,1505
2017-03-13T10:34:42.539Z,2035
2017-03-13T10:35:54.012Z,1745
2017-03-13T10:37:05.669Z,1345
2017-03-13T10:38:17.393Z,1190
2017-03-13T10:39:28.854Z,1485
2017-03-13T10:40:40.339Z,1730
2017-03-13T10:41:51.802Z,1995
2017-03-13T10:43:03.477Z,1990
2017-03-13T10:44:15.201Z,1830
2017-03-13T10:45:26.694Z,1885
2017-03-13T10:46:38.164Z,2100
2017-03-13T10:47:49.621Z,2025
2017-03-13T10:49:01.081Z,2140
2017-03-13T10:50:12.584Z,2180
2017-03-13T10:51:24.067Z,2320
2017-03-13T10:52:35.543Z,2185
2017-03-13T10:53:47.012Z,2285
2017-03-13T10:54:58.478Z,2205
2017-03-13T10:56:09.993Z,2225
2017-03-13T10:57:21.450Z,2145
2017-03-13T10:58:33.125Z,2155
2017-03-13T10:59:44.606Z,2160
2017-03-13T11:00:56.115Z,2145
2017-03-13T11:02:07.635Z,2105
2017-03-13T11:03:19.100Z,2160
2017-03-13T11:04:30.564Z,2160
2017-03-13T11:05:42.049Z,2175
2017-03-13T11:06:53.529Z,2090
2017-03-13T11:08:05.053Z,2065
2017-03-13T11:09:16.567Z,2140
2017-03-13T11:10:28.230Z,2130
2017-03-13T11:11:39.901Z,2125
2017-03-13T11:12:51.568Z,2005
2017-03-13T11:14:03.303Z,2050
2017-03-13T11:15:14.758Z,2060
2017-03-13T11:16:26.235Z,2055
2017-03-13T11:17:37.739Z,2070
2017-03-13T11:18:49.432Z,2080
2017-03-13T11:20:01.151Z,2060
2017-03-13T11:21:12.612Z,2065
2017-03-13T11:22:24.089Z,1995
2017-03-13T11:23:35.591Z,2035
2017-03-13T11:24:47.067Z,2025
2017-03-13T11:25:58.842Z,2000
2017-03-13T11:27:10.344Z,1995
2017-03-13T11:28:21.805Z,1925
2017-03-13T11:29:33.298Z,1920
2017-03-13T11:30:45.184Z,1950
2017-03-13T11:31:56.709Z,1910
2017-03-13T11:33:08.621Z,1890
2017-03-13T11:34:20.085Z,1855
2017-03-13T11:35:31.562Z,1895
2017-03-13T11:36:43.063Z,1855
2017-03-13T11:37:54.793Z,1845
2017-03-13T11:39:06.267Z,1860
2017-03-13T11:40:17.954Z,1815
2017-03-13T11:41:29.424Z,1790
2017-03-13T11:42:40.901Z,1800
2017-03-13T11:43:52.628Z,1770
2017-03-13T11:45:04.084Z,1730
2017-03-13T11:46:15.562Z,1660
2017-03-13T11:47:27.028Z,1685
2017-03-13T11:48:38.518Z,1645
2017-03-13T11:49:50.241Z,1640
2017-03-13T11:51:01.716Z,1575
2017-03-13T11:52:13.195Z,1525
2017-03-13T11:53:24.680Z,1505
2017-03-13T11:54:36.181Z,1545
2017-03-13T11:55:47.944Z,1495
2017-03-13T11:56:59.617Z,1530
2017-03-13T11:58:11.077Z,1550
2017-03-13T11:59:22.555Z,1510
2017-03-13T12:00:34.044Z,1455
2017-03-13T12:01:45.771Z,1480
2017-03-13T12:02:57.266Z,1435
2017-03-13T12:04:08.731Z,1410
2017-03-13T12:05:20.421Z,1415
2017-03-13T12:06:31.893Z,1380
2017-03-13T12:07:43.412Z,1330
2017-03-13T12:08:54.875Z,1295
2017-03-13T12:10:06.547Z,1380
2017-03-13T12:11:18.043Z,1350
2017-03-13T12:12:29.702Z,1260
2017-03-13T12:13:41.433Z,1185
2017-03-13T12:14:52.909Z,1205
2017-03-13T12:16:04.599Z,1235
2017-03-13T12:17:16.074Z,1265
2017-03-13T12:18:27.541Z,1250
2017-03-13T12:19:39.212Z,1200
2017-03-13T12:20:50.764Z,1080
2017-03-13T12:22:02.248Z,1270
2017-03-13T12:23:13.710Z,1220
2017-03-13T12:24:25.190Z,1185
2017-03-13T12:25:36.664Z,1065
2017-03-13T12:26:48.382Z,1050
2017-03-13T12:27:59.863Z,1065
2017-03-13T12:29:11.357Z,960
2017-03-13T12:30:22.812Z,900
2017-03-13T12:31:34.298Z,830
2017-03-13T12:32:45.824Z,725
2017-03-13T12:33:57.296Z,710
2017-03-13T12:35:08.756Z,750
2017-03-13T12:36:20.204Z,715
2017-03-13T12:37:31.683Z,615
2017-03-13T12:38:43.418Z,615
2017-03-13T12:39:55.109Z,860
2017-03-13T12:41:06.786Z,920
2017-03-13T12:42:18.288Z,935
2017-03-13T12:43:29.741Z,875
2017-03-13T12:44:41.455Z,975
2017-03-13T12:45:53.137Z,1045
2017-03-13T12:47:04.612Z,1025
2017-03-13T12:48:16.086Z,970
2017-03-13T12:49:27.766Z,900
2017-03-13T12:50:39.670Z,775
2017-03-13T12:54:15.656Z,760
2017-03-13T12:55:27.123Z,705
2017-03-13T12:56:38.660Z,695
2017-03-13T12:57:50.153Z,690
2017-03-13T12:59:01.624Z,740
2017-03-13T13:00:13.060Z,565
2017-03-13T13:01:24.493Z,640
2017-03-13T13:02:36.122Z,635
2017-03-13T13:03:47.549Z,615
2017-03-13T13:04:59.181Z,650
2017-03-13T13:06:10.608Z,705
2017-03-13T13:07:22.049Z,715
2017-03-13T13:08:33.928Z,635
2017-03-13T13:09:45.355Z,640
2017-03-13T13:10:56.965Z,640
2017-03-13T13:12:08.387Z,525
2017-03-13T13:13:20.007Z,455
2017-03-13T13:14:31.669Z,420
2017-03-13T13:15:43.097Z,405
2017-03-13T13:16:54.520Z,385
2017-03-13T13:18:06.143Z,345
2017-03-13T13:19:17.571Z,355
2017-03-13T13:20:29.047Z,390
2017-03-13T13:21:40.469Z,370
2017-03-13T13:22:51.896Z,380
2017-03-13T13:24:03.327Z,390
2017-03-13T13:25:14.757Z,405
2017-03-13T13:26:26.478Z,410
2017-03-13T13:27:37.906Z,370
2017-03-13T13:28:49.344Z,365
2017-03-13T13:30:00.770Z,400
2017-03-13T13:31:12.395Z,390
2017-03-13T13:32:24.076Z,375
2017-03-13T13:33:35.702Z,345
2017-03-13T13:34:47.131Z,340
2017-03-13T13:35:58.558Z,320
2017-03-13T13:37:09.980Z,335
2017-03-13T13:38:21.662Z,375
2017-03-13T13:39:33.295Z,350
2017-03-13T13:40:44.924Z,345
2017-03-13T13:41:56.353Z,345
2017-03-13T13:43:07.772Z,340
2017-03-13T13:44:19.245Z,345
2017-03-13T13:45:30.693Z,350
2017-03-13T13:46:42.121Z,330
2017-03-13T13:47:53.753Z,345
2017-03-13T13:49:05.183Z,320
2017-03-13T13:50:16.858Z,325
2017-03-13T13:51:28.284Z,340
2017-03-13T13:52:39.713Z,335
2017-03-13T13:53:51.150Z,330
2017-03-13T13:55:02.565Z,290
2017-03-13T13:56:14.239Z,275
2017-03-13T13:57:25.657Z,270
2017-03-13T13:58:37.077Z,250
2017-03-13T13:59:48.498Z,265
2017-03-13T14:00:59.919Z,280
2017-03-13T14:02:11.399Z,270
2017-03-13T14:03:23.030Z,285
2017-03-13T14:04:34.457Z,290
2017-03-13T14:05:45.896Z,285
2017-03-13T14:06:57.320Z,285
2017-03-13T14:08:08.791Z,280
2017-03-13T14:09:20.211Z,285
2017-03-13T14:10:31.636Z,285
2017-03-13T14:11:43.067Z,290
2017-03-13T14:12:54.495Z,310
2017-03-13T14:14:06.366Z,305
2017-03-13T14:15:17.774Z,300
2017-03-13T14:16:29.190Z,315
2017-03-13T14:17:40.608Z,325
2017-03-13T14:18:52.235Z,305
2017-03-13T14:20:03.707Z,310
2017-03-13T14:21:15.530Z,310
2017-03-13T14:22:27.364Z,310
2017-03-13T14:23:38.986Z,295
2017-03-13T14:24:50.398Z,305
2017-03-13T14:26:02.077Z,305
2017-03-13T14:27:13.506Z,300
2017-03-13T14:28:24.923Z,310
2017-03-13T14:29:36.340Z,330
2017-03-13T14:30:47.756Z,325
2017-03-13T14:31:59.434Z,315
2017-03-13T14:33:10.855Z,315
2017-03-13T14:34:22.267Z,305
2017-03-13T14:35:33.687Z,305
2017-03-13T14:36:45.097Z,315
2017-03-13T14:37:56.766Z,315
2017-03-13T14:39:08.183Z,310
2017-03-13T14:40:19.604Z,295
2017-03-13T14:41:31.021Z,275
2017-03-13T14:42:42.638Z,270
2017-03-13T14:43:54.118Z,275
2017-03-13T14:45:05.539Z,280
2017-03-13T14:46:16.960Z,285
2017-03-13T14:47:28.389Z,290
2017-03-13T14:48:40.016Z,295
2017-03-13T14:49:51.693Z,295
2017-03-13T14:51:03.314Z,285
2017-03-13T14:52:14.732Z,275
2017-03-13T14:53:26.166Z,265
2017-03-13T14:54:37.788Z,265
2017-03-13T14:55:49.508Z,265
2017-03-13T14:57:00.936Z,260
2017-03-13T14:58:12.360Z,265
2017-03-13T14:59:24.186Z,275
2017-03-13T15:00:35.607Z,280
2017-03-13T15:01:47.277Z,280
2017-03-13T15:02:58.699Z,265
2017-03-13T15:04:10.117Z,255
2017-03-13T15:05:21.544Z,265
2017-03-13T15:06:33.165Z,275
2017-03-13T15:07:44.837Z,270
2017-03-13T15:08:56.455Z,250
2017-03-13T15:10:07.873Z,240
2017-03-13T15:11:19.500Z,230
2017-03-13T15:12:31.127Z,230
2017-03-13T15:13:42.807Z,220
2017-03-13T15:14:54.432Z,220
2017-03-13T15:16:05.855Z,225
2017-03-13T15:17:17.269Z,215
2017-03-13T15:18:28.898Z,215
2017-03-13T15:19:40.567Z,220
2017-03-13T15:20:51.988Z,220
2017-03-13T15:22:03.408Z,225
2017-03-13T15:23:14.837Z,225
2017-03-13T15:24:26.265Z,215
2017-03-13T15:25:38.135Z,200
2017-03-13T15:26:49.566Z,190
2017-03-13T15:28:00.982Z,190
2017-03-13T15:29:12.411Z,195
2017-03-13T15:30:23.835Z,185
2017-03-13T15:31:35.509Z,185
2017-03-13T15:32:46.932Z,185
2017-03-13T15:33:58.363Z,180
2017-03-13T15:35:09.803Z,180
2017-03-13T15:36:21.223Z,170
2017-03-13T15:37:32.699Z,165
2017-03-13T15:38:44.108Z,165
2017-03-13T15:39:55.525Z,170
2017-03-13T15:41:06.952Z,170
2017-03-13T15:42:18.579Z,170
2017-03-13T15:43:30.256Z,170
2017-03-13T15:44:41.681Z,180
2017-03-13T15:45:53.329Z,165
2017-03-13T15:47:04.745Z,160
2017-03-13T15:48:16.166Z,160
2017-03-13T15:49:27.632Z,155
2017-03-13T15:50:39.051Z,150
2017-03-13T15:51:50.672Z,145
2017-03-13T15:53:02.099Z,140
2017-03-13T15:54:13.515Z,125
2017-03-13T15:55:24.996Z,125
2017-03-13T15:56:36.414Z,115
2017-03-13T15:57:47.828Z,110
2017-03-13T15:58:59.453Z,105
2017-03-13T16:00:10.872Z,100
2017-03-13T16:01:22.363Z,95
2017-03-13T16:02:33.997Z,95
2017-03-13T16:03:45.427Z,95
2017-03-13T16:04:56.854Z,95
2017-03-13T16:06:08.271Z,90
2017-03-13T16:07:19.945Z,85
2017-03-13T16:08:31.365Z,80
2017-03-13T16:09:42.979Z,80
2017-03-13T16:10:54.607Z,80
2017-03-13T16:12:06.025Z,75
2017-03-13T16:13:17.699Z,70
2017-03-13T16:14:29.136Z,65
2017-03-13T16:15:40.555Z,70
2017-03-13T16:16:51.981Z,70
2017-03-13T16:18:03.401Z,70
2017-03-13T16:19:14.862Z,70
2017-03-13T16:20:26.481Z,75
2017-03-13T16:21:37.893Z,75
2017-03-13T16:22:49.308Z,75
2017-03-13T16:24:00.715Z,65
2017-03-13T16:25:12.381Z,60
2017-03-13T16:26:23.794Z,65
2017-03-13T16:27:35.208Z,55
2017-03-13T16:28:46.621Z,55
2017-03-13T16:29:58.037Z,50
2017-03-13T16:31:09.653Z,45
2017-03-13T16:32:21.081Z,45
2017-03-13T16:33:32.508Z,45
2017-03-13T16:34:43.930Z,45
2017-03-13T16:35:55.410Z,45
2017-03-13T16:37:06.834Z,50
2017-03-13T16:38:18.463Z,50
2017-03-13T16:39:30.079Z,50
2017-03-13T16:40:41.524Z,50
2017-03-13T16:41:52.997Z,50
2017-03-13T16:43:04.432Z,50
2017-03-13T16:44:37.597Z,55
2017-03-13T16:46:07.301Z,60